Time;durP1;ratioP1;P1;durP2;ratioP2;P2;SDS_P1;SDS_P2;PMS_P1;PMS_P2;Temp;Humidity;BMP_temperature;BMP_pressure;BME280_temperature;BME280_humidity;BME280_pressure;Samples;Min_cycle;Max_cycle;Signal;HPM_P1;HPM_P2
2021/09/21 00:01:50;;;;;;;2.83;2.63;;;19.60;68.00;;;;;;4191539;28;20074;-60
2021/09/21 00:04:13;;;;;;;2.83;2.63;;;19.60;68.10;;;;;;4191019;28;20745;-59
2021/09/21 00:06:36;;;;;;;2.90;2.70;;;19.60;68.00;;;;;;4193456;28;20044;-60
2021/09/21 00:08:58;;;;;;;2.75;2.55;;;19.60;68.10;;;;;;4208199;28;20707;-59
2021/09/21 00:11:20;;;;;;;3.42;2.85;;;19.60;68.20;;;;;;4207897;28;20048;-60
2021/09/21 00:13:43;;;;;;;3.53;3.30;;;19.60;68.30;;;;;;4207749;28;20050;-59
2021/09/21 00:16:05;;;;;;;3.33;3.10;;;19.60;68.20;;;;;;4206159;28;20472;-59
2021/09/21 00:18:27;;;;;;;2.90;2.80;;;19.60;68.30;;;;;;4207760;28;20051;-60
2021/09/21 00:20:51;;;;;;;3.20;3.00;;;19.60;68.40;;;;;;4207415;28;20044;-60
2021/09/21 00:23:13;;;;;;;3.42;3.13;;;19.60;68.30;;;;;;4207897;28;20054;-59
2021/09/21 00:25:35;;;;;;;3.30;2.90;;;19.60;68.50;;;;;;4207909;28;20082;-60
2021/09/21 00:27:58;;;;;;;4.38;3.00;;;19.50;68.40;;;;;;4196584;28;20055;-59
2021/09/21 00:30:21;;;;;;;3.42;3.13;;;19.60;68.50;;;;;;4205701;28;20052;-60
2021/09/21 00:32:45;;;;;;;2.80;2.60;;;19.60;68.60;;;;;;4207742;28;20113;-59
2021/09/21 00:35:08;;;;;;;2.88;2.67;;;19.50;68.50;;;;;;4207309;28;20081;-59
2021/09/21 00:37:32;;;;;;;3.00;2.80;;;19.50;68.50;;;;;;4205929;28;20047;-60
2021/09/21 00:39:54;;;;;;;3.83;3.30;;;19.50;68.40;;;;;;4207768;28;20143;-61
2021/09/21 00:42:24;;;;;;;3.15;2.83;;;19.50;68.60;;;;;;4208127;28;20957;-61
2021/09/21 00:44:46;;;;;;;3.03;2.92;;;19.50;68.30;;;;;;4199348;28;20059;-61
2021/09/21 00:47:10;;;;;;;3.60;3.28;;;19.50;68.70;;;;;;4206750;28;20494;-57
2021/09/21 00:49:33;;;;;;;4.97;3.20;;;19.50;68.60;;;;;;4207437;28;20218;-59
2021/09/21 00:51:56;;;;;;;3.53;3.33;;;19.50;68.50;;;;;;4207116;28;20044;-61
2021/09/21 00:54:20;;;;;;;3.55;3.25;;;19.50;68.50;;;;;;4206985;28;20060;-60
2021/09/21 00:56:42;;;;;;;3.33;3.13;;;19.50;68.60;;;;;;4190763;28;20080;-59
2021/09/21 00:59:05;;;;;;;3.75;3.45;;;19.50;68.60;;;;;;4189822;28;20422;-59
2021/09/21 01:01:27;;;;;;;3.55;3.17;;;19.50;68.60;;;;;;4190575;28;20040;-59
2021/09/21 01:03:49;;;;;;;3.67;2.72;;;19.50;68.80;;;;;;4190667;28;20049;-60
2021/09/21 01:06:11;;;;;;;3.67;3.47;;;19.50;68.70;;;;;;4190651;28;20060;-60
2021/09/21 01:08:33;;;;;;;4.75;4.05;;;19.50;68.70;;;;;;4190469;28;20048;-60
2021/09/21 01:10:57;;;;;;;4.72;3.60;;;19.50;68.80;;;;;;4190399;28;20773;-59
2021/09/21 01:13:19;;;;;;;4.22;3.78;;;19.50;68.60;;;;;;4190418;28;20048;-59
2021/09/21 01:15:41;;;;;;;4.35;4.05;;;19.50;68.90;;;;;;4205543;28;20410;-59
2021/09/21 01:18:03;;;;;;;4.65;3.70;;;19.50;68.80;;;;;;4207327;28;20130;-59
2021/09/21 01:20:27;;;;;;;4.50;4.10;;;19.50;69.00;;;;;;4207151;28;20082;-60
2021/09/21 01:22:50;;;;;;;4.65;4.28;;;19.40;68.80;;;;;;4204365;28;20075;-59
2021/09/21 01:25:14;;;;;;;4.05;3.78;;;19.50;68.80;;;;;;4203353;28;20518;-59
2021/09/21 01:27:36;;;;;;;3.88;3.58;;;19.50;69.00;;;;;;4190338;28;20082;-59
2021/09/21 01:29:59;;;;;;;3.55;3.25;;;19.50;69.10;;;;;;4191173;28;20110;-60
2021/09/21 01:32:22;;;;;;;4.00;3.58;;;19.40;69.10;;;;;;4206965;28;20050;-59
2021/09/21 01:34:45;;;;;;;6.25;3.60;;;19.50;69.30;;;;;;4200402;28;20527;-60
2021/09/21 01:37:12;;;;;;;4.18;3.80;;;19.50;69.30;;;;;;4206841;28;20067;-60
2021/09/21 01:39:35;;;;;;;3.60;3.30;;;19.50;69.40;;;;;;4207134;28;20051;-59
2021/09/21 01:41:58;;;;;;;3.63;3.33;;;19.40;69.30;;;;;;4210408;28;20486;-60
2021/09/21 01:44:20;;;;;;;3.97;3.60;;;19.40;69.50;;;;;;4210568;28;20153;-60
2021/09/21 01:46:42;;;;;;;3.95;3.60;;;19.40;69.60;;;;;;4210154;28;20472;-60
2021/09/21 01:49:04;;;;;;;3.90;3.67;;;19.50;69.60;;;;;;4210382;28;20040;-60
2021/09/21 01:51:30;;;;;;;3.58;3.28;;;19.50;69.60;;;;;;4210315;28;20047;-59
2021/09/21 01:54:00;;;;;;;3.85;3.35;;;19.50;69.50;;;;;;4209253;28;20051;-60
2021/09/21 01:59:05;;;;;;;3.97;3.67;;;19.40;69.30;;;;;;4193092;28;20544;-59
2021/09/21 02:01:29;;;;;;;3.10;2.90;;;19.40;69.60;;;;;;4193269;28;20055;-58
2021/09/21 02:03:53;;;;;;;3.30;3.10;;;19.40;69.60;;;;;;4193417;28;20049;-59
2021/09/21 02:06:15;;;;;;;4.20;3.35;;;19.40;69.50;;;;;;4193448;28;20048;-59
2021/09/21 02:08:37;;;;;;;3.28;2.97;;;19.40;69.70;;;;;;4193429;28;20456;-59
2021/09/21 02:11:00;;;;;;;3.33;3.13;;;19.40;69.70;;;;;;4193181;28;20048;-59
2021/09/21 02:13:23;;;;;;;3.00;2.80;;;19.40;69.60;;;;;;4193277;28;20052;-59
2021/09/21 02:15:45;;;;;;;3.20;3.00;;;19.40;69.30;;;;;;4192888;28;20140;-59
2021/09/21 02:18:07;;;;;;;2.97;2.85;;;19.40;69.30;;;;;;4193322;28;20056;-59
2021/09/21 02:20:30;;;;;;;3.42;3.13;;;19.40;69.20;;;;;;4196317;28;20052;-59
2021/09/21 02:22:52;;;;;;;3.65;2.97;;;19.40;69.00;;;;;;4209777;28;20045;-60
2021/09/21 02:25:14;;;;;;;3.17;2.97;;;19.40;69.20;;;;;;4202286;28;20089;-59
2021/09/21 02:27:38;;;;;;;4.30;2.90;;;19.40;69.20;;;;;;4193010;28;20461;-59
2021/09/21 02:30:01;;;;;;;2.78;2.60;;;19.40;69.20;;;;;;4193006;28;20051;-60
2021/09/21 02:32:23;;;;;;;3.10;2.80;;;19.40;68.90;;;;;;4193045;28;20411;-60
2021/09/21 02:34:48;;;;;;;2.90;2.80;;;19.40;69.10;;;;;;4193124;28;20135;-60
2021/09/21 02:37:10;;;;;;;2.88;2.67;;;19.40;68.90;;;;;;4192930;28;20048;-59
2021/09/21 02:39:32;;;;;;;2.85;2.65;;;19.40;68.80;;;;;;4205709;28;20097;-59
2021/09/21 02:41:54;;;;;;;3.10;2.80;;;19.40;68.60;;;;;;4192860;28;20048;-59
2021/09/21 02:44:16;;;;;;;3.00;2.78;;;19.30;68.60;;;;;;4192722;28;20105;-59
2021/09/21 02:46:39;;;;;;;2.83;2.63;;;19.40;68.60;;;;;;4192704;28;20487;-59
2021/09/21 02:49:02;;;;;;;2.88;2.53;;;19.40;68.40;;;;;;4195671;28;20063;-59
2021/09/21 02:51:24;;;;;;;2.85;2.40;;;19.40;68.60;;;;;;4208715;28;20047;-59
2021/09/21 02:53:46;;;;;;;2.70;2.40;;;19.40;68.40;;;;;;4209012;28;20062;-59
2021/09/21 02:56:08;;;;;;;2.83;2.63;;;19.30;68.30;;;;;;4176672;28;20060;-59
2021/09/21 02:58:30;;;;;;;2.85;2.55;;;19.30;68.40;;;;;;4208828;28;20071;-59
2021/09/21 03:00:54;;;;;;;2.70;2.50;;;19.30;68.30;;;;;;4208817;28;20108;-59
2021/09/21 03:03:18;;;;;;;2.65;2.45;;;19.30;68.30;;;;;;4206830;28;20105;-59
2021/09/21 03:05:43;;;;;;;3.20;2.80;;;19.30;68.40;;;;;;4200546;28;20048;-59
2021/09/21 03:08:08;;;;;;;2.70;2.50;;;19.30;68.60;;;;;;4190771;28;20040;-59
2021/09/21 03:10:44;;;;;;;3.10;2.80;;;19.30;68.80;;;;;;4207747;28;20052;-60
2021/09/21 03:18:28;;;;;;;2.45;2.35;;;19.30;69.50;;;;;;4207365;28;20294;-59
2021/09/21 03:20:50;;;;;;;2.53;2.42;;;19.30;69.00;;;;;;4208473;28;20462;-58
2021/09/21 03:23:12;;;;;;;2.85;2.60;;;19.30;69.10;;;;;;4208725;28;20152;-59
2021/09/21 03:25:34;;;;;;;3.05;2.85;;;19.30;68.70;;;;;;4207604;28;20055;-59
2021/09/21 03:27:57;;;;;;;2.92;2.60;;;19.30;68.50;;;;;;4208687;28;20067;-59
2021/09/21 03:30:19;;;;;;;3.00;2.30;;;19.30;68.50;;;;;;4191888;28;20055;-58
2021/09/21 03:32:42;;;;;;;2.38;2.28;;;19.30;68.40;;;;;;4191593;28;20688;-59
2021/09/21 03:35:07;;;;;;;2.70;2.50;;;19.20;68.30;;;;;;4192073;28;20052;-59
2021/09/21 03:37:29;;;;;;;2.45;2.35;;;19.30;68.40;;;;;;4191883;28;20052;-59
2021/09/21 03:39:51;;;;;;;2.67;2.58;;;19.20;68.60;;;;;;4191849;28;20079;-59
2021/09/21 03:42:13;;;;;;;3.55;2.88;;;19.20;68.70;;;;;;4191713;28;20079;-59
2021/09/21 03:44:35;;;;;;;2.65;2.50;;;19.30;68.60;;;;;;4191937;28;20056;-59
2021/09/21 03:46:58;;;;;;;2.42;2.30;;;19.20;68.70;;;;;;4191840;28;20052;-59
2021/09/21 03:49:20;;;;;;;2.53;2.40;;;19.30;68.70;;;;;;4201706;28;20067;-58
2021/09/21 03:51:44;;;;;;;2.75;2.55;;;19.20;68.50;;;;;;4208362;28;20055;-59
2021/09/21 03:54:09;;;;;;;2.58;2.38;;;19.20;68.50;;;;;;4207220;28;20428;-59
2021/09/21 03:56:31;;;;;;;3.10;2.58;;;19.20;68.70;;;;;;4207166;28;20059;-59
2021/09/21 03:58:53;;;;;;;2.53;2.35;;;19.20;68.40;;;;;;4207698;28;20807;-59
2021/09/21 04:01:16;;;;;;;2.30;2.20;;;19.20;68.60;;;;;;4207591;28;20048;-58
2021/09/21 04:03:38;;;;;;;2.47;2.28;;;19.20;68.50;;;;;;4207679;28;20402;-58
2021/09/21 04:06:00;;;;;;;2.45;2.25;;;19.20;68.60;;;;;;4208002;28;20771;-60
2021/09/21 04:08:23;;;;;;;2.30;2.10;;;19.20;68.70;;;;;;4207834;28;20509;-59
2021/09/21 04:10:45;;;;;;;2.47;2.28;;;19.20;68.50;;;;;;4207448;28;20414;-59
2021/09/21 04:13:07;;;;;;;1.92;1.83;;;19.20;68.60;;;;;;4207188;28;20052;-59
2021/09/21 04:15:29;;;;;;;2.45;2.30;;;19.20;68.50;;;;;;4191454;28;20560;-59
2021/09/21 04:17:52;;;;;;;2.80;2.42;;;19.20;68.50;;;;;;4190729;28;20040;-59
2021/09/21 04:20:14;;;;;;;2.70;2.20;;;19.20;68.60;;;;;;4190928;28;20127;-59
2021/09/21 04:22:36;;;;;;;2.85;2.63;;;19.20;68.60;;;;;;4188648;28;20498;-59
2021/09/21 04:25:01;;;;;;;2.33;2.20;;;19.20;68.60;;;;;;4200020;28;20043;-59
2021/09/21 04:27:23;;;;;;;2.20;2.10;;;19.20;68.40;;;;;;4207295;28;20535;-59
2021/09/21 04:29:45;;;;;;;2.70;1.95;;;19.20;68.50;;;;;;4207900;28;20552;-59
2021/09/21 04:32:07;;;;;;;2.22;2.03;;;19.20;68.50;;;;;;4207573;28;20052;-60
2021/09/21 04:34:30;;;;;;;2.00;1.90;;;19.20;68.50;;;;;;4204181;28;20780;-60
2021/09/21 04:36:53;;;;;;;2.38;2.17;;;19.20;68.70;;;;;;4208077;28;20048;-60
2021/09/21 04:39:16;;;;;;;2.20;2.00;;;19.10;68.50;;;;;;4207591;28;20470;-60
2021/09/21 04:41:39;;;;;;;2.63;2.47;;;19.10;68.80;;;;;;4207877;28;20482;-60
2021/09/21 04:44:01;;;;;;;2.83;2.20;;;19.20;68.70;;;;;;4207503;28;20130;-61
2021/09/21 04:46:24;;;;;;;2.28;2.10;;;19.20;69.00;;;;;;4207581;28;20089;-60
2021/09/21 04:48:46;;;;;;;3.58;2.25;;;19.20;68.70;;;;;;4207765;28;20074;-60
2021/09/21 04:51:08;;;;;;;3.38;2.42;;;19.10;68.80;;;;;;4207835;28;20395;-61
2021/09/21 04:53:30;;;;;;;2.55;2.35;;;19.20;69.00;;;;;;4203775;28;20048;-59
2021/09/21 04:55:52;;;;;;;2.45;2.35;;;19.10;68.90;;;;;;4190871;28;20056;-63
2021/09/21 04:58:16;;;;;;;2.47;2.28;;;19.10;68.60;;;;;;4190402;28;20048;-60
2021/09/21 05:00:38;;;;;;;2.33;2.03;;;19.10;68.60;;;;;;4191167;28;20049;-60
2021/09/21 05:03:00;;;;;;;3.53;2.70;;;19.10;68.60;;;;;;4190816;28;20051;-59
2021/09/21 05:05:23;;;;;;;2.58;2.47;;;19.10;68.40;;;;;;4207005;28;20491;-61
2021/09/21 05:07:45;;;;;;;2.35;2.25;;;19.10;68.10;;;;;;4207521;28;20051;-59
2021/09/21 05:10:08;;;;;;;2.83;2.63;;;19.10;68.10;;;;;;4207290;28;20056;-61
2021/09/21 05:12:30;;;;;;;2.83;2.33;;;19.10;68.20;;;;;;4207620;28;20482;-61
2021/09/21 05:14:54;;;;;;;2.60;2.40;;;19.10;68.40;;;;;;4191046;28;20056;-60
2021/09/21 05:17:16;;;;;;;3.47;2.60;;;19.10;68.40;;;;;;4193584;28;20105;-60
2021/09/21 05:19:38;;;;;;;2.97;2.70;;;19.10;68.90;;;;;;4193515;28;20041;-58
2021/09/21 05:22:00;;;;;;;2.67;2.47;;;19.10;68.70;;;;;;4193650;28;20048;-60
2021/09/21 05:24:22;;;;;;;2.90;2.70;;;19.10;68.40;;;;;;4202888;28;20116;-60
2021/09/21 05:26:44;;;;;;;2.63;2.47;;;19.10;68.10;;;;;;4210070;28;20063;-63
2021/09/21 05:29:07;;;;;;;3.05;2.65;;;19.10;68.10;;;;;;4210203;28;20047;-61
2021/09/21 05:31:30;;;;;;;2.90;2.70;;;19.10;68.40;;;;;;4210208;28;20059;-61
2021/09/21 05:33:52;;;;;;;2.53;2.33;;;19.10;68.10;;;;;;4209742;28;20051;-60
2021/09/21 05:36:14;;;;;;;3.38;3.08;;;19.10;68.20;;;;;;4209407;28;20429;-61
2021/09/21 05:38:36;;;;;;;3.28;2.58;;;19.10;68.00;;;;;;4210027;28;20444;-60
2021/09/21 05:40:59;;;;;;;2.88;2.63;;;19.10;68.50;;;;;;4209868;28;20048;-60
2021/09/21 05:43:21;;;;;;;3.05;2.75;;;19.10;68.30;;;;;;4209708;28;20040;-60
2021/09/21 05:45:42;;;;;;;2.60;2.50;;;19.20;68.40;;;;;;4197666;28;20185;-58
2021/09/21 05:48:06;;;;;;;2.97;2.65;;;19.20;68.60;;;;;;4209840;28;20044;-58
2021/09/21 05:50:29;;;;;;;2.92;2.72;;;19.20;68.30;;;;;;4209728;28;20123;-59
2021/09/21 05:52:51;;;;;;;2.80;2.60;;;19.20;68.10;;;;;;4209842;28;20048;-59
2021/09/21 05:55:13;;;;;;;5.40;2.83;;;19.20;68.10;;;;;;4209760;28;20052;-59
2021/09/21 05:57:36;;;;;;;3.25;3.00;;;19.20;67.90;;;;;;4209874;28;20047;-59
2021/09/21 05:59:58;;;;;;;3.60;3.30;;;19.20;67.70;;;;;;4209426;28;20489;-59
2021/09/21 06:02:23;;;;;;;4.50;2.85;;;19.20;67.50;;;;;;4209766;28;20542;-59
2021/09/21 06:04:47;;;;;;;4.03;3.15;;;19.20;67.70;;;;;;4208546;28;20414;-60
2021/09/21 06:07:09;;;;;;;2.97;2.78;;;19.20;67.60;;;;;;4208926;28;20056;-60
2021/09/21 06:09:31;;;;;;;3.03;2.83;;;19.20;67.80;;;;;;4209908;28;20044;-60
2021/09/21 06:11:53;;;;;;;6.85;3.17;;;19.20;67.60;;;;;;4210048;28;20052;-59
2021/09/21 06:14:15;;;;;;;5.15;3.03;;;19.10;68.00;;;;;;4209760;28;20048;-61
2021/09/21 06:16:37;;;;;;;3.42;3.17;;;19.20;68.20;;;;;;4209792;28;20131;-58
2021/09/21 06:19:00;;;;;;;3.35;3.15;;;19.10;68.00;;;;;;4209407;28;20070;-59
2021/09/21 06:21:24;;;;;;;3.13;2.92;;;19.10;68.90;;;;;;4209192;28;20058;-59
2021/09/21 06:23:45;;;;;;;3.40;3.20;;;19.10;67.70;;;;;;4209238;28;20075;-59
2021/09/21 06:26:08;;;;;;;3.78;3.53;;;19.10;68.90;;;;;;4208867;28;20405;-59
2021/09/21 06:28:30;;;;;;;4.32;3.10;;;19.10;69.00;;;;;;4208006;28;20708;-59
2021/09/21 06:30:52;;;;;;;3.60;3.30;;;19.10;69.20;;;;;;4208395;28;20052;-59
2021/09/21 06:33:14;;;;;;;3.53;3.33;;;19.10;69.30;;;;;;4208133;28;20043;-59
2021/09/21 06:35:37;;;;;;;3.53;2.80;;;19.10;69.30;;;;;;4209055;28;20056;-59
2021/09/21 06:38:01;;;;;;;3.45;3.25;;;19.10;69.20;;;;;;4208752;28;20134;-59
2021/09/21 06:40:23;;;;;;;3.28;3.08;;;19.10;69.30;;;;;;4208958;28;20052;-60
2021/09/21 06:42:48;;;;;;;4.93;3.55;;;19.10;69.50;;;;;;4209220;28;20691;-60
2021/09/21 06:45:12;;;;;;;3.97;2.67;;;19.10;69.40;;;;;;4208682;28;20079;-59
2021/09/21 06:47:35;;;;;;;3.65;3.35;;;19.10;69.30;;;;;;4208042;28;20052;-59
2021/09/21 06:49:57;;;;;;;3.53;3.33;;;19.10;69.20;;;;;;4207590;28;20140;-59
2021/09/21 06:52:19;;;;;;;3.63;3.25;;;19.10;69.20;;;;;;4204161;28;20414;-59
2021/09/21 06:54:43;;;;;;;3.45;3.25;;;19.10;69.20;;;;;;4207918;28;20050;-59
2021/09/21 06:57:05;;;;;;;3.80;3.50;;;19.10;68.90;;;;;;4208872;28;20054;-59
2021/09/21 06:59:26;;;;;;;3.35;3.15;;;19.10;69.10;;;;;;4208638;28;20080;-59
2021/09/21 07:01:49;;;;;;;4.18;3.53;;;19.10;69.10;;;;;;4201973;28;20509;-59
2021/09/21 07:04:11;;;;;;;3.65;3.35;;;19.10;68.90;;;;;;4208968;28;20208;-60
2021/09/21 07:06:33;;;;;;;3.25;2.92;;;19.10;68.80;;;;;;4208591;28;20056;-59
2021/09/21 07:08:55;;;;;;;4.82;3.30;;;19.10;68.70;;;;;;4208697;28;20093;-59
2021/09/21 07:11:20;;;;;;;7.50;3.90;;;19.10;68.90;;;;;;4208656;28;20059;-60
2021/09/21 07:13:42;;;;;;;5.53;3.42;;;19.10;68.70;;;;;;4207110;28;20144;-60
2021/09/21 07:16:05;;;;;;;5.05;3.10;;;19.10;68.70;;;;;;4208211;28;20409;-60
2021/09/21 07:18:27;;;;;;;4.57;3.50;;;19.10;68.80;;;;;;4208950;28;20044;-60
2021/09/21 07:20:49;;;;;;;5.75;3.75;;;19.10;69.00;;;;;;4207301;28;20101;-60
2021/09/21 07:23:11;;;;;;;3.40;3.10;;;19.10;69.00;;;;;;4208830;28;20097;-59
2021/09/21 07:25:33;;;;;;;3.17;2.97;;;19.10;68.90;;;;;;4208741;28;20139;-59
2021/09/21 07:27:57;;;;;;;4.65;3.03;;;19.10;68.80;;;;;;4208424;28;20047;-60
2021/09/21 07:30:20;;;;;;;3.40;3.13;;;19.10;69.10;;;;;;4208639;28;20493;-59
2021/09/21 07:32:43;;;;;;;3.55;3.17;;;19.10;68.90;;;;;;4208578;28;20135;-60
2021/09/21 07:35:06;;;;;;;3.17;2.97;;;19.10;69.50;;;;;;4207854;28;20052;-60
2021/09/21 07:37:28;;;;;;;4.45;3.13;;;19.10;68.80;;;;;;4208407;28;20109;-60
2021/09/21 07:39:49;;;;;;;6.60;3.08;;;19.10;68.40;;;;;;4191464;28;20087;-60
2021/09/21 07:42:12;;;;;;;4.13;3.75;;;19.10;68.40;;;;;;4207445;28;20503;-59
2021/09/21 07:44:36;;;;;;;3.88;3.58;;;19.10;68.40;;;;;;4208221;28;20048;-59
2021/09/21 07:46:58;;;;;;;3.33;2.97;;;19.10;68.30;;;;;;4208314;28;20472;-59
2021/09/21 07:49:21;;;;;;;3.13;2.67;;;19.10;67.90;;;;;;4207820;28;20052;-60
2021/09/21 07:51:44;;;;;;;3.30;3.00;;;19.10;68.00;;;;;;4208185;28;20072;-60
2021/09/21 07:54:07;;;;;;;3.63;2.92;;;19.10;68.30;;;;;;4203355;28;20518;-60
2021/09/21 07:56:29;;;;;;;2.72;2.55;;;19.10;68.70;;;;;;4195966;28;20062;-60
2021/09/21 07:58:51;;;;;;;4.40;3.17;;;19.10;68.80;;;;;;4207943;28;20134;-60
2021/09/21 08:01:15;;;;;;;2.95;2.75;;;19.10;68.70;;;;;;4208143;28;20075;-60
2021/09/21 08:03:37;;;;;;;3.58;3.15;;;19.10;69.60;;;;;;4208247;28;20067;-59
2021/09/21 08:06:00;;;;;;;3.28;2.90;;;19.10;68.60;;;;;;4207839;28;20490;-60
2021/09/21 08:08:21;;;;;;;2.72;2.53;;;19.10;68.90;;;;;;4207574;28;20143;-60
2021/09/21 08:10:44;;;;;;;3.05;2.85;;;19.10;69.00;;;;;;4208105;28;20568;-59
2021/09/21 08:13:06;;;;;;;3.40;2.97;;;19.10;68.60;;;;;;4207408;28;20125;-60
2021/09/21 08:15:30;;;;;;;2.83;2.63;;;19.10;68.70;;;;;;4207700;28;20118;-60
2021/09/21 08:17:53;;;;;;;3.33;3.03;;;19.10;69.30;;;;;;4207910;28;20048;-60
2021/09/21 08:20:15;;;;;;;3.15;2.80;;;19.10;69.30;;;;;;4208018;28;20113;-60
2021/09/21 08:22:38;;;;;;;4.43;3.00;;;19.10;69.00;;;;;;4208251;28;20047;-60
2021/09/21 08:25:01;;;;;;;3.10;2.90;;;19.10;69.00;;;;;;4208014;28;20067;-59
2021/09/21 08:27:23;;;;;;;4.22;2.70;;;19.10;68.80;;;;;;4207993;28;20046;-58
2021/09/21 08:29:46;;;;;;;3.45;2.70;;;19.10;69.00;;;;;;4207656;28;20139;-60
2021/09/21 08:32:08;;;;;;;3.50;2.97;;;19.20;69.10;;;;;;4207139;28;20101;-60
2021/09/21 08:34:33;;;;;;;3.97;3.13;;;19.10;68.90;;;;;;4208053;28;20490;-60
2021/09/21 08:36:56;;;;;;;3.28;2.72;;;19.20;68.60;;;;;;4207644;28;20070;-60
2021/09/21 08:39:21;;;;;;;3.00;2.80;;;19.20;69.00;;;;;;4207706;28;20052;-59
2021/09/21 08:41:43;;;;;;;4.07;2.20;;;19.20;69.10;;;;;;4207247;28;20055;-59
2021/09/21 08:44:07;;;;;;;3.88;3.13;;;19.20;68.60;;;;;;4198365;28;20095;-60
2021/09/21 08:46:29;;;;;;;3.40;3.05;;;19.10;69.00;;;;;;4205426;28;20056;-59
2021/09/21 08:48:51;;;;;;;3.00;2.80;;;19.10;68.90;;;;;;4206913;28;20119;-61
2021/09/21 08:51:14;;;;;;;3.33;3.13;;;19.20;69.10;;;;;;4209725;28;20521;-61
2021/09/21 08:53:37;;;;;;;3.13;2.92;;;19.20;68.30;;;;;;4211124;28;20072;-60
2021/09/21 08:55:59;;;;;;;3.75;2.97;;;19.20;68.70;;;;;;4211000;28;20047;-60
2021/09/21 08:58:24;;;;;;;3.35;3.15;;;19.20;68.40;;;;;;4210454;28;20040;-60
2021/09/21 09:00:46;;;;;;;3.42;3.13;;;19.20;68.40;;;;;;4210535;28;20048;-60
2021/09/21 09:03:11;;;;;;;3.20;3.00;;;19.20;67.90;;;;;;4210629;28;20577;-61
2021/09/21 09:05:44;;;;;;;3.45;3.15;;;19.20;67.70;;;;;;4210285;28;20063;-62
2021/09/21 09:08:12;;;;;;;3.80;3.10;;;19.30;67.60;;;;;;4209959;28;20416;-60
2021/09/21 09:10:35;;;;;;;3.20;2.95;;;19.20;67.80;;;;;;4209917;28;20047;-61
2021/09/21 09:12:57;;;;;;;3.30;3.10;;;19.30;68.20;;;;;;4210364;28;20072;-60
2021/09/21 09:15:21;;;;;;;4.70;3.42;;;19.30;68.00;;;;;;4210624;28;20082;-61
2021/09/21 09:17:53;;;;;;;5.47;3.45;;;19.30;68.00;;;;;;4210432;28;20550;-61
2021/09/21 09:20:15;;;;;;;3.38;3.10;;;19.30;67.40;;;;;;4210914;28;20486;-62
2021/09/21 09:22:37;;;;;;;2.92;2.72;;;19.30;68.00;;;;;;4210326;28;20054;-61
2021/09/21 09:25:04;;;;;;;4.35;3.38;;;19.30;67.70;;;;;;4194051;28;20056;-61
2021/09/21 09:27:36;;;;;;;2.88;2.67;;;19.30;67.80;;;;;;4197618;28;20482;-61
2021/09/21 09:30:01;;;;;;;2.22;2.13;;;19.30;67.20;;;;;;4209422;28;20051;-60
2021/09/21 09:32:23;;;;;;;3.20;2.28;;;19.40;67.90;;;;;;4210642;28;20490;-61
2021/09/21 09:34:45;;;;;;;2.58;2.38;;;19.30;67.70;;;;;;4210417;28;20044;-61
2021/09/21 09:37:08;;;;;;;2.55;2.25;;;19.40;68.20;;;;;;4209073;28;20530;-60
2021/09/21 09:39:31;;;;;;;2.80;2.45;;;19.40;68.10;;;;;;4210055;28;20503;-60
2021/09/21 09:41:56;;;;;;;2.88;2.50;;;19.40;67.70;;;;;;4209792;28;20144;-61
2021/09/21 09:44:21;;;;;;;2.67;2.42;;;19.40;67.60;;;;;;4209631;28;20044;-61
2021/09/21 09:46:49;;;;;;;2.72;2.60;;;19.40;67.80;;;;;;4210478;28;20040;-62
2021/09/21 09:49:11;;;;;;;3.60;2.53;;;19.40;67.80;;;;;;4210061;28;20486;-60
2021/09/21 09:51:34;;;;;;;3.30;2.92;;;19.40;67.50;;;;;;4210342;28;20471;-60
2021/09/21 09:53:56;;;;;;;3.78;2.53;;;19.40;67.40;;;;;;4210271;28;20040;-61
2021/09/21 09:56:19;;;;;;;4.22;2.28;;;19.40;67.50;;;;;;4209585;28;20044;-61
2021/09/21 09:58:42;;;;;;;2.72;2.53;;;19.40;67.80;;;;;;4209594;28;20063;-60
2021/09/21 10:01:04;;;;;;;2.95;2.50;;;19.50;67.80;;;;;;4209352;28;20482;-61
2021/09/21 10:03:27;;;;;;;2.78;2.53;;;19.40;67.70;;;;;;4209602;28;20056;-60
2021/09/21 10:05:51;;;;;;;3.08;2.75;;;19.50;67.60;;;;;;4192405;28;20084;-57
2021/09/21 10:08:13;;;;;;;3.28;2.55;;;19.50;67.10;;;;;;4209576;28;20083;-60
2021/09/21 10:10:37;;;;;;;3.92;2.95;;;19.50;67.20;;;;;;4209458;28;20050;-61
2021/09/21 10:13:01;;;;;;;3.13;2.78;;;19.50;67.30;;;;;;4210091;28;20070;-61
2021/09/21 10:15:27;;;;;;;3.20;3.00;;;19.50;67.50;;;;;;4209576;28;20044;-60
2021/09/21 10:17:53;;;;;;;4.93;3.15;;;19.50;67.10;;;;;;4209816;28;20414;-60
2021/09/21 10:20:15;;;;;;;3.58;2.53;;;19.50;67.30;;;;;;4209414;28;20068;-61
2021/09/21 10:22:38;;;;;;;3.03;2.75;;;19.50;67.40;;;;;;4209885;28;20067;-61
2021/09/21 10:25:06;;;;;;;10.02;2.88;;;19.60;67.70;;;;;;4209692;28;20490;-61
2021/09/21 10:27:28;;;;;;;3.30;2.90;;;19.60;67.30;;;;;;4192916;28;20450;-60
2021/09/21 10:29:59;;;;;;;3.42;3.13;;;19.60;67.50;;;;;;4192853;28;20080;-61
2021/09/21 10:32:25;;;;;;;4.50;3.10;;;19.60;67.10;;;;;;4201019;28;20502;-60
2021/09/21 10:34:48;;;;;;;2.65;2.50;;;19.60;67.30;;;;;;4193230;28;20056;-61
2021/09/21 10:37:12;;;;;;;4.13;3.08;;;19.60;67.40;;;;;;4192601;28;20063;-60
2021/09/21 10:39:34;;;;;;;3.78;2.53;;;19.70;68.40;;;;;;4194654;28;20127;-61
2021/09/21 10:42:00;;;;;;;3.10;2.90;;;19.70;68.50;;;;;;4207431;28;20571;-61
2021/09/21 10:44:23;;;;;;;3.05;2.85;;;19.70;67.60;;;;;;4208844;28;20047;-58
2021/09/21 10:46:49;;;;;;;4.82;2.63;;;19.70;67.70;;;;;;4209068;28;20040;-61
2021/09/21 10:49:23;;;;;;;3.38;3.15;;;19.70;67.40;;;;;;4209293;28;20111;-60
2021/09/21 10:51:49;;;;;;;3.58;2.90;;;19.70;67.10;;;;;;4208938;28;20061;-61
2021/09/21 10:54:11;;;;;;;3.65;2.75;;;19.70;67.10;;;;;;4209329;28;20054;-60
2021/09/21 10:56:39;;;;;;;3.08;2.63;;;19.80;67.30;;;;;;4209326;28;20553;-60
2021/09/21 10:59:01;;;;;;;3.08;2.88;;;19.80;67.10;;;;;;4209373;28;20414;-61
2021/09/21 11:01:23;;;;;;;3.40;3.08;;;19.80;67.30;;;;;;4209010;28;20044;-60
2021/09/21 11:03:46;;;;;;;3.30;3.00;;;19.80;67.30;;;;;;4209408;28;20071;-61
2021/09/21 11:06:09;;;;;;;3.80;2.75;;;19.80;67.40;;;;;;4192049;28;20044;-60
2021/09/21 11:08:33;;;;;;;3.28;2.97;;;19.90;67.50;;;;;;4192235;28;20469;-61
2021/09/21 11:10:59;;;;;;;3.40;3.00;;;19.90;67.40;;;;;;4190091;28;20134;-60
2021/09/21 11:13:25;;;;;;;3.10;2.90;;;19.90;67.00;;;;;;4207552;28;20048;-60
2021/09/21 11:15:48;;;;;;;3.00;2.80;;;19.90;67.30;;;;;;4208711;28;20048;-61
2021/09/21 11:18:12;;;;;;;3.50;3.25;;;20.00;67.10;;;;;;4208319;28;20051;-62
2021/09/21 11:20:47;;;;;;;3.22;3.00;;;20.00;67.10;;;;;;4208083;28;20040;-60
2021/09/21 11:23:11;;;;;;;4.10;3.20;;;20.00;67.10;;;;;;4191768;28;20511;-60
2021/09/21 11:25:33;;;;;;;3.17;2.80;;;19.90;67.00;;;;;;4194866;28;20052;-60
2021/09/21 11:27:56;;;;;;;3.83;3.10;;;20.00;67.10;;;;;;4208776;28;20050;-60
2021/09/21 11:30:18;;;;;;;3.90;3.53;;;20.00;67.00;;;;;;4208783;28;20052;-60
2021/09/21 11:32:41;;;;;;;3.15;2.80;;;20.00;67.20;;;;;;4208602;28;20047;-60
2021/09/21 11:35:06;;;;;;;3.15;2.92;;;20.00;67.20;;;;;;4208299;28;20098;-63
2021/09/21 11:37:29;;;;;;;4.47;3.25;;;20.00;67.30;;;;;;4209003;28;20044;-59
2021/09/21 11:39:52;;;;;;;4.32;2.50;;;20.00;68.00;;;;;;4208655;28;20490;-60
2021/09/21 11:42:21;;;;;;;3.38;2.75;;;20.00;68.50;;;;;;4207369;28;20044;-62
2021/09/21 11:44:44;;;;;;;6.25;3.28;;;20.10;68.30;;;;;;4206933;28;20870;-61
2021/09/21 11:47:06;;;;;;;4.10;3.60;;;20.00;68.10;;;;;;4207077;28;20490;-62
2021/09/21 11:49:28;;;;;;;3.95;3.35;;;20.10;67.80;;;;;;4208211;28;20101;-60
2021/09/21 11:51:51;;;;;;;4.20;3.20;;;20.10;67.90;;;;;;4208287;28;20097;-61
2021/09/21 11:54:13;;;;;;;3.60;3.00;;;20.10;67.80;;;;;;4207764;28;20509;-62
2021/09/21 11:56:43;;;;;;;3.65;3.03;;;20.10;67.80;;;;;;4199869;28;20432;-59
2021/09/21 11:59:05;;;;;;;3.92;3.10;;;20.10;67.80;;;;;;4207313;28;20048;-59
2021/09/21 12:01:29;;;;;;;4.40;2.88;;;20.10;67.60;;;;;;4206134;28;20048;-59
2021/09/21 12:03:53;;;;;;;4.25;3.20;;;20.10;67.50;;;;;;4208138;28;20064;-60
2021/09/21 12:06:15;;;;;;;3.00;2.80;;;20.10;67.50;;;;;;4207840;28;20051;-60
2021/09/21 12:08:41;;;;;;;4.47;3.58;;;20.10;67.30;;;;;;4207174;28;20058;-60
2021/09/21 12:11:07;;;;;;;4.50;3.13;;;20.10;67.50;;;;;;4208424;28;20052;-59
2021/09/21 12:13:30;;;;;;;3.00;2.80;;;20.10;67.40;;;;;;4207680;28;20071;-58
2021/09/21 12:15:55;;;;;;;3.58;3.38;;;20.10;67.50;;;;;;4207916;28;20118;-59
2021/09/21 12:18:17;;;;;;;3.22;3.03;;;20.10;67.60;;;;;;4207805;28;20062;-60
2021/09/21 12:20:40;;;;;;;3.20;2.88;;;20.10;68.30;;;;;;4207775;28;20093;-60
2021/09/21 12:23:03;;;;;;;3.35;3.05;;;20.10;67.50;;;;;;4207877;28;20048;-61
2021/09/21 12:25:31;;;;;;;6.78;3.15;;;20.10;67.40;;;;;;4207663;28;20048;-60
2021/09/21 12:27:54;;;;;;;3.55;3.25;;;20.10;67.50;;;;;;4208234;28;20052;-60
2021/09/21 12:30:18;;;;;;;3.00;2.80;;;20.00;67.40;;;;;;4207815;28;20492;-59
2021/09/21 12:32:40;;;;;;;3.72;2.95;;;20.00;67.70;;;;;;4207822;28;20048;-61
2021/09/21 12:35:04;;;;;;;3.25;3.05;;;20.00;67.90;;;;;;4206693;28;20043;-60